Αναφορές METAR Αεροδρομίων

 

LGTS - THESSALONIKI - GREECE
Ενημερώθηκε: 13/12/2017 14:50
Αίθριος
Αίθριος
 Ανεμος από Δ
Ανεμος: Δ 6 km/h
Θερμοκρασία: 14°C
Σημ. Δρόσου: 7°C
Υγρασία: 63%
Βαρόμετρο: 1018 hPa
Περίληψη: Αίθριος
Visibility: greater than 10 km
2017/12/13 12:50 LGTS 131250Z 26003KT CAVOK 14/07 Q1018 NOSIG
LGLR - LARTISA - GREECE
Ενημερώθηκε: 13/12/2017 14:50
Αραιές Νεφώσεις
Αραιές Νεφώσεις
 Ανεμος από calm
Ανεμος: Απνοια
Θερμοκρασία: 18°C
Σημ. Δρόσου: 12°C
Υγρασία: 68%
Βαρόμετρο: 1018 hPa
Clouds: Αραιές Νεφώσεις
Visibility: 10 km
Cloud details: Αραιές Νεφώσεις 2438 m
2017/12/13 12:50 LGLR 131250Z 00000KT 9999 FEW080 18/12 Q1018 RMK SCT180 BLU
 
LGKZ - KOZANI - GREECE
Ενημερώθηκε: 13/12/2017 14:50
Αραιές Νεφώσεις
Αραιές Νεφώσεις
 Ανεμος από calm
Ανεμος: Απνοια
Θερμοκρασία: 13°C
Σημ. Δρόσου: 7°C
Υγρασία: 67%
Βαρόμετρο: 1019 hPa
Clouds: Αραιές Νεφώσεις
Visibility: 10 km
Cloud details: Αραιές Νεφώσεις 2134 m
2017/12/13 12:50 LGKZ 131250Z 00000KT 9999 FEW070 13/07 Q1019
LGKV - KAVALA - GREECE
Ενημερώθηκε: 13/12/2017 14:50
Αίθριος
Αίθριος
 Ανεμος από ΝΝΔ
Ανεμος: ΝΝΔ 7 km/h
Θερμοκρασία: 15°C
Σημ. Δρόσου: 9°C
Υγρασία: 68%
Βαρόμετρο: 1017 hPa
Περίληψη: Αίθριος
Visibility: greater than 10 km
2017/12/13 12:50 LGKV 131250Z 21004KT CAVOK 15/09 Q1017
 
LGIO - IOANNINA - GREECE
Ενημερώθηκε: 13/12/2017 14:50
Σχεδόν νεφελώδης
Σχεδόν νεφελώδης
 Ανεμος από varies
Ανεμος: varies 0 km/h
Θερμοκρασία: 13°C
Σημ. Δρόσου: 10°C
Υγρασία: 82%
Βαρόμετρο: 1021 hPa
Clouds: Σχεδόν νεφελώδης
Visibility: 10 km
Cloud details: Σχεδόν νεφελώδης 762 m
2017/12/13 12:50 LGIO 131250Z /////KT 9999 BKN025 13/10 Q1021
LGBL - BOLOS - GREECE
Ενημερώθηκε: 13/12/2017 14:50
Αίθριος
Αίθριος
 Ανεμος από ΑΝΑ
Ανεμος: ΑΝΑ 13 km/h
Θερμοκρασία: 19°C
Σημ. Δρόσου: 9°C
Υγρασία: 52%
Βαρόμετρο: 1018 hPa
Περίληψη: Αίθριος
Visibility: greater than 10 km
2017/12/13 12:50 LGBL 131250Z 11007KT CAVOK 19/09 Q1018
 
LGMT - MITILINI - GREECE
Ενημερώθηκε: 13/12/2017 14:50
Αραιές Νεφώσεις
Αραιές Νεφώσεις
 Ανεμος από ΝΑ
Ανεμος: ΝΑ 17 km/h
Θερμοκρασία: 18°C
Σημ. Δρόσου: 12°C
Υγρασία: 68%
Βαρόμετρο: 1020 hPa
Clouds: Αραιές Νεφώσεις
Visibility: 10 km
Cloud details: Αραιές Νεφώσεις 762 m
2017/12/13 12:50 LGMT 131250Z 14009KT 110V190 9999 FEW025 18/12 Q1020
LGAV - ATHENS - GREECE
Ενημερώθηκε: 13/12/2017 14:50
Αραιές Νεφώσεις
Αραιές Νεφώσεις
 Ανεμος από ΔΒΔ
Ανεμος: ΔΒΔ 13 km/h
Θερμοκρασία: 20°C
Σημ. Δρόσου: 6°C
Υγρασία: 40%
Βαρόμετρο: 1019 hPa
Clouds: Αραιές Νεφώσεις
Visibility: 10 km
Cloud details: Αραιές Νεφώσεις 914 m
2017/12/13 12:50 LGAV 131250Z 29007KT 240V330 9999 FEW030 20/06 Q1019 NOSIG
 
LGRP - RODOS - GREECE
Ενημερώθηκε: 13/12/2017 14:50
Αραιές Νεφώσεις
Αραιές Νεφώσεις
 Ανεμος από Δ
Ανεμος: Δ 31 km/h
Θερμοκρασία: 19°C
Σημ. Δρόσου: 14°C
Υγρασία: 73%
Βαρόμετρο: 1018 hPa
Clouds: Αραιές Νεφώσεις
Visibility: 10 km
Cloud details: Αραιές Νεφώσεις 457 m
2017/12/13 12:50 LGRP 131250Z 26017KT 9999 FEW015 19/14 Q1018 NOSIG
LGIR - HRAKLIO/KRITI - GREECE
Ενημερώθηκε: 13/12/2017 14:50
Αραιές Νεφώσεις
Αραιές Νεφώσεις
 Ανεμος από ΔΒΔ
Ανεμος: ΔΒΔ 22 km/h
Θερμοκρασία: 19°C
Σημ. Δρόσου: 14°C
Υγρασία: 73%
Βαρόμετρο: 1021 hPa
Clouds: Αραιές Νεφώσεις
Visibility: 10 km
Cloud details: Αραιές Νεφώσεις 762 m
2017/12/13 12:50 LGIR 131250Z 30012KT 9999 FEW025 19/14 Q1021 NOSIG
 
LGMK - MIKONOS - GREECE
Ενημερώθηκε: 13/12/2017 14:50
Αραιές Νεφώσεις
Αραιές Νεφώσεις
 Ανεμος από Δ
Ανεμος: Δ 11 km/h
Θερμοκρασία: 17°C
Σημ. Δρόσου: 12°C
Υγρασία: 73%
Βαρόμετρο: 1020 hPa
Clouds: Αραιές Νεφώσεις
Visibility: 10 km
Cloud details: Αραιές Νεφώσεις 549 m
2017/12/13 12:50 LGMK 131250Z 28006KT 9999 FEW018 17/12 Q1020
LGKR - KERKIRA - GREECE
Ενημερώθηκε: 13/12/2017 14:50
Μερικώς νεφελώδης
Μερικώς νεφελώδης
 Ανεμος από Ν
Ανεμος: Ν 28 km/h
Θερμοκρασία: 17°C
Σημ. Δρόσου: 13°C
Υγρασία: 77%
Βαρόμετρο: 1021 hPa
Clouds: Μερικώς νεφελώδης
Visibility: 10 km
Cloud details: Μερικώς νεφελώδης 305 m
Μερικώς νεφελώδης 914 m
2017/12/13 12:50 LGKR 131250Z 17015KT 9999 SCT010 SCT030 17/13 Q1021 NOSIG